Country
Station

 

Weather  for  Pusan/Kimhae International Airport  -  Korea (Republic of)    Korea (Republic of)

  
14 °C (57 °F)
    
 
 

Current METAR for Pusan/Kimhae International Airport is :

RKPK 211800Z 04006KT CAVOK 14/11 Q1016 NOSIG

 

This is a report for Pusan/Kimhae International Airport - Korea (Republic of).
 
The report was made 23 minutes ago, at 18:00 UTC .
The wind was blowing at a speed of 3.1 meters per second (6.9 miles per hour) from northeast (040°).
 
The temperature was 14 °C (57 °F), with a dew-point at 11 °C (52 °F).
The atmospheric pressure was 1016 hPa (30.00 inHg).
The relative humidity was 82.1%.
 
There were no clouds below 1500 meter (5000 feet) and no cumulonimbus clouds.
 
The overall visibility was greater than 10 kilometers (6.2 miles).
 

 
 
 
 

Country :   A   B   C   D   E   F   G   H   I   J   K   L   M   N   O   P   Q   R   S   T   U   V   W   Y   Z

 

Site Info  |  Disclaimer  |  Credits  |  Privacy
Contact us  |  Add to favorites
© 2013-2018 METARs - All rights reserved